KCEZ/CEZ METAR and TAF weather

Enter ICAO airport designator
Station Type Date Time Source
KCEZ METAR 2018/01/24 06:53 UTC NOAA

KCEZ 240653Z AUTO 05005KT 10SM CLR M11/M12 A3041 RMK AO2 SLP323 T11061122 400391150


Station Type Date Time Source
KCEZ Decoded METAR 2018/01/24 06:53 UTC NOAA

CORTEZ MONTEZUMA COUNTY AIRPORT , CO, United States (KCEZ) 37-18N 108-38W 1797M
Jan 24, 2018 - 01:53 AM EST / 2018.01.24 0653 UTC
Wind: from the NE (050 degrees) at 6 MPH (5 KT):0
Visibility: 10 mile(s):0
Sky conditions: clear
Temperature: 12.9 F (-10.6 C)
Windchill: 3 F (-16 C):1
Dew Point: 10.0 F (-12.2 C)
Relative Humidity: 87%
Pressure (altimeter): 30.41 in. Hg (1029 hPa)
ob: KCEZ 240653Z AUTO 05005KT 10SM CLR M11/M12 A3041 RMK AO2 SLP323 T11061122 400391150
cycle: 7

Station Type Date Time Source
KCEZ TAF UTC NOAA

Error!


Example: see airport list